sensor_id;sensor_type;location;lat;lon;timestamp;temperature;humidity
15906;DHT22;8051;50.820;4.884;2024-02-23T00:00:15;5.20;99.90
15906;DHT22;8051;50.820;4.884;2024-02-23T00:02:44;5.20;99.90
15906;DHT22;8051;50.820;4.884;2024-02-23T00:05:11;5.20;99.90
15906;DHT22;8051;50.820;4.884;2024-02-23T00:07:40;5.20;99.90
15906;DHT22;8051;50.820;4.884;2024-02-23T00:10:08;5.10;99.90
15906;DHT22;8051;50.820;4.884;2024-02-23T00:12:36;5.20;99.90
15906;DHT22;8051;50.820;4.884;2024-02-23T00:15:04;5.20;99.90
15906;DHT22;8051;50.820;4.884;2024-02-23T00:17:31;5.20;99.90
15906;DHT22;8051;50.820;4.884;2024-02-23T00:19:59;5.20;99.90
15906;DHT22;8051;50.820;4.884;2024-02-23T00:22:26;5.20;99.90
15906;DHT22;8051;50.820;4.884;2024-02-23T00:24:55;5.20;99.90
15906;DHT22;8051;50.820;4.884;2024-02-23T00:27:23;5.10;99.90
15906;DHT22;8051;50.820;4.884;2024-02-23T00:29:50;5.00;99.90
15906;DHT22;8051;50.820;4.884;2024-02-23T00:32:17;5.00;99.90
15906;DHT22;8051;50.820;4.884;2024-02-23T00:34:45;5.10;99.90
15906;DHT22;8051;50.820;4.884;2024-02-23T00:37:12;5.00;99.90
15906;DHT22;8051;50.820;4.884;2024-02-23T00:39:41;5.10;99.90
15906;DHT22;8051;50.820;4.884;2024-02-23T00:42:09;5.10;99.90
15906;DHT22;8051;50.820;4.884;2024-02-23T00:44:37;5.10;99.90
15906;DHT22;8051;50.820;4.884;2024-02-23T00:47:05;5.00;99.90
15906;DHT22;8051;50.820;4.884;2024-02-23T00:49:32;5.00;99.90
15906;DHT22;8051;50.820;4.884;2024-02-23T00:52:00;5.00;99.90
15906;DHT22;8051;50.820;4.884;2024-02-23T00:54:28;4.90;99.90
15906;DHT22;8051;50.820;4.884;2024-02-23T00:56:55;4.90;99.90
15906;DHT22;8051;50.820;4.884;2024-02-23T00:59:24;4.90;99.90
15906;DHT22;8051;50.820;4.884;2024-02-23T01:01:51;4.90;99.90
15906;DHT22;8051;50.820;4.884;2024-02-23T01:04:19;4.90;99.90
15906;DHT22;8051;50.820;4.884;2024-02-23T01:06:46;4.90;99.90
15906;DHT22;8051;50.820;4.884;2024-02-23T01:09:14;4.90;99.90
15906;DHT22;8051;50.820;4.884;2024-02-23T01:11:46;4.90;99.90
15906;DHT22;8051;50.820;4.884;2024-02-23T01:14:14;4.80;99.90
15906;DHT22;8051;50.820;4.884;2024-02-23T01:16:42;4.80;99.90
15906;DHT22;8051;50.820;4.884;2024-02-23T01:19:09;4.90;99.90
15906;DHT22;8051;50.820;4.884;2024-02-23T01:21:37;4.90;99.90
15906;DHT22;8051;50.820;4.884;2024-02-23T01:24:05;4.90;99.90
15906;DHT22;8051;50.820;4.884;2024-02-23T01:26:32;4.80;99.90
15906;DHT22;8051;50.820;4.884;2024-02-23T01:43:03;4.70;99.90
15906;DHT22;8051;50.820;4.884;2024-02-23T01:45:30;4.80;99.90
15906;DHT22;8051;50.820;4.884;2024-02-23T01:47:58;4.80;99.90
15906;DHT22;8051;50.820;4.884;2024-02-23T01:50:26;4.90;99.90
15906;DHT22;8051;50.820;4.884;2024-02-23T01:52:55;4.90;99.90
15906;DHT22;8051;50.820;4.884;2024-02-23T01:55:23;5.00;99.90
15906;DHT22;8051;50.820;4.884;2024-02-23T01:57:51;5.10;99.90
15906;DHT22;8051;50.820;4.884;2024-02-23T02:00:20;5.10;99.90
15906;DHT22;8051;50.820;4.884;2024-02-23T02:02:48;5.10;99.90
15906;DHT22;8051;50.820;4.884;2024-02-23T02:05:16;5.10;99.90
15906;DHT22;8051;50.820;4.884;2024-02-23T02:07:43;5.20;99.90
15906;DHT22;8051;50.820;4.884;2024-02-23T02:10:12;5.20;99.90
15906;DHT22;8051;50.820;4.884;2024-02-23T02:12:39;5.20;99.90
15906;DHT22;8051;50.820;4.884;2024-02-23T02:15:07;5.20;99.90
15906;DHT22;8051;50.820;4.884;2024-02-23T02:17:36;5.20;99.90
15906;DHT22;8051;50.820;4.884;2024-02-23T02:20:05;5.30;99.90
15906;DHT22;8051;50.820;4.884;2024-02-23T02:22:33;5.30;99.90
15906;DHT22;8051;50.820;4.884;2024-02-23T02:25:00;5.30;99.90
15906;DHT22;8051;50.820;4.884;2024-02-23T02:27:28;5.30;99.90
15906;DHT22;8051;50.820;4.884;2024-02-23T02:29:55;5.30;99.90
15906;DHT22;8051;50.820;4.884;2024-02-23T02:32:23;5.30;99.90
15906;DHT22;8051;50.820;4.884;2024-02-23T02:34:52;5.30;99.90
15906;DHT22;8051;50.820;4.884;2024-02-23T02:37:20;5.30;99.90
15906;DHT22;8051;50.820;4.884;2024-02-23T02:39:47;5.30;99.90
15906;DHT22;8051;50.820;4.884;2024-02-23T02:42:15;5.30;99.90
15906;DHT22;8051;50.820;4.884;2024-02-23T02:44:42;5.30;99.90
15906;DHT22;8051;50.820;4.884;2024-02-23T02:47:10;5.30;99.90
15906;DHT22;8051;50.820;4.884;2024-02-23T02:49:39;5.40;99.90
15906;DHT22;8051;50.820;4.884;2024-02-23T02:52:08;5.40;99.90
15906;DHT22;8051;50.820;4.884;2024-02-23T02:54:35;5.40;99.90
15906;DHT22;8051;50.820;4.884;2024-02-23T02:57:03;5.40;99.90
15906;DHT22;8051;50.820;4.884;2024-02-23T02:59:34;5.40;99.90
15906;DHT22;8051;50.820;4.884;2024-02-23T03:02:02;5.40;99.90
15906;DHT22;8051;50.820;4.884;2024-02-23T03:04:29;5.40;99.90
15906;DHT22;8051;50.820;4.884;2024-02-23T03:06:56;5.40;99.90
15906;DHT22;8051;50.820;4.884;2024-02-23T03:09:25;5.50;99.90
15906;DHT22;8051;50.820;4.884;2024-02-23T03:11:53;5.40;99.90
15906;DHT22;8051;50.820;4.884;2024-02-23T03:14:21;5.40;99.90
15906;DHT22;8051;50.820;4.884;2024-02-23T03:16:49;5.40;99.90
15906;DHT22;8051;50.820;4.884;2024-02-23T03:19:16;5.40;99.90
15906;DHT22;8051;50.820;4.884;2024-02-23T03:21:48;5.40;99.90
15906;DHT22;8051;50.820;4.884;2024-02-23T03:24:15;5.40;99.90
15906;DHT22;8051;50.820;4.884;2024-02-23T03:26:44;5.30;99.90
15906;DHT22;8051;50.820;4.884;2024-02-23T03:29:11;5.30;99.90
15906;DHT22;8051;50.820;4.884;2024-02-23T03:31:39;5.20;99.90
15906;DHT22;8051;50.820;4.884;2024-02-23T03:34:06;5.20;99.90
15906;DHT22;8051;50.820;4.884;2024-02-23T03:36:36;5.20;99.90
15906;DHT22;8051;50.820;4.884;2024-02-23T03:39:03;5.20;99.90
15906;DHT22;8051;50.820;4.884;2024-02-23T03:41:31;5.10;99.90
15906;DHT22;8051;50.820;4.884;2024-02-23T03:44:00;5.10;99.90
15906;DHT22;8051;50.820;4.884;2024-02-23T03:46:27;5.10;99.90
15906;DHT22;8051;50.820;4.884;2024-02-23T03:48:55;5.00;99.90
15906;DHT22;8051;50.820;4.884;2024-02-23T03:51:22;5.00;99.90
15906;DHT22;8051;50.820;4.884;2024-02-23T03:53:50;5.10;99.90
15906;DHT22;8051;50.820;4.884;2024-02-23T03:56:17;5.10;99.90
15906;DHT22;8051;50.820;4.884;2024-02-23T03:58:45;5.10;99.90
15906;DHT22;8051;50.820;4.884;2024-02-23T04:01:14;5.10;99.90
15906;DHT22;8051;50.820;4.884;2024-02-23T04:03:41;5.10;99.90
15906;DHT22;8051;50.820;4.884;2024-02-23T04:06:09;5.20;99.90
15906;DHT22;8051;50.820;4.884;2024-02-23T04:08:36;5.20;99.90
15906;DHT22;8051;50.820;4.884;2024-02-23T04:11:04;5.10;99.90
15906;DHT22;8051;50.820;4.884;2024-02-23T04:13:31;5.10;99.90
15906;DHT22;8051;50.820;4.884;2024-02-23T04:16:00;5.10;99.90
15906;DHT22;8051;50.820;4.884;2024-02-23T04:18:30;5.10;99.90
15906;DHT22;8051;50.820;4.884;2024-02-23T04:20:58;5.10;99.90
15906;DHT22;8051;50.820;4.884;2024-02-23T04:23:25;5.10;99.90
15906;DHT22;8051;50.820;4.884;2024-02-23T04:25:52;5.00;99.90
15906;DHT22;8051;50.820;4.884;2024-02-23T04:28:20;5.00;99.90
15906;DHT22;8051;50.820;4.884;2024-02-23T04:30:48;4.90;99.90
15906;DHT22;8051;50.820;4.884;2024-02-23T04:33:15;5.00;99.90
15906;DHT22;8051;50.820;4.884;2024-02-23T04:35:44;5.00;99.90
15906;DHT22;8051;50.820;4.884;2024-02-23T04:38:11;5.00;99.90
15906;DHT22;8051;50.820;4.884;2024-02-23T04:40:39;5.10;99.90
15906;DHT22;8051;50.820;4.884;2024-02-23T04:43:06;5.20;99.90
15906;DHT22;8051;50.820;4.884;2024-02-23T04:45:34;5.20;99.90
15906;DHT22;8051;50.820;4.884;2024-02-23T04:48:01;5.30;99.90
15906;DHT22;8051;50.820;4.884;2024-02-23T04:50:29;5.30;99.90
15906;DHT22;8051;50.820;4.884;2024-02-23T04:52:58;5.30;99.90
15906;DHT22;8051;50.820;4.884;2024-02-23T04:55:26;5.40;99.90
15906;DHT22;8051;50.820;4.884;2024-02-23T04:57:53;5.40;99.90
15906;DHT22;8051;50.820;4.884;2024-02-23T05:00:22;5.40;99.90
15906;DHT22;8051;50.820;4.884;2024-02-23T05:02:49;5.50;99.90
15906;DHT22;8051;50.820;4.884;2024-02-23T05:05:17;5.50;99.90
15906;DHT22;8051;50.820;4.884;2024-02-23T05:07:44;5.50;99.90
15906;DHT22;8051;50.820;4.884;2024-02-23T05:10:13;5.50;99.90
15906;DHT22;8051;50.820;4.884;2024-02-23T05:12:41;5.50;99.90
15906;DHT22;8051;50.820;4.884;2024-02-23T05:15:09;5.50;99.90
15906;DHT22;8051;50.820;4.884;2024-02-23T05:17:36;5.60;99.90
15906;DHT22;8051;50.820;4.884;2024-02-23T05:20:04;5.50;99.90
15906;DHT22;8051;50.820;4.884;2024-02-23T05:22:36;5.50;99.90
15906;DHT22;8051;50.820;4.884;2024-02-23T05:25:03;5.50;99.90
15906;DHT22;8051;50.820;4.884;2024-02-23T05:27:33;5.50;99.90
15906;DHT22;8051;50.820;4.884;2024-02-23T05:30:00;5.50;99.90
15906;DHT22;8051;50.820;4.884;2024-02-23T05:32:28;5.50;99.90
15906;DHT22;8051;50.820;4.884;2024-02-23T05:34:55;5.50;99.90
15906;DHT22;8051;50.820;4.884;2024-02-23T05:37:23;5.50;99.90
15906;DHT22;8051;50.820;4.884;2024-02-23T05:39:52;5.50;99.90
15906;DHT22;8051;50.820;4.884;2024-02-23T05:42:21;5.50;99.90
15906;DHT22;8051;50.820;4.884;2024-02-23T05:44:49;5.50;99.90
15906;DHT22;8051;50.820;4.884;2024-02-23T05:47:17;5.50;99.90
15906;DHT22;8051;50.820;4.884;2024-02-23T05:49:44;5.50;99.90
15906;DHT22;8051;50.820;4.884;2024-02-23T05:52:12;5.50;99.90
15906;DHT22;8051;50.820;4.884;2024-02-23T05:54:40;5.50;99.90
15906;DHT22;8051;50.820;4.884;2024-02-23T05:57:08;5.60;99.90
15906;DHT22;8051;50.820;4.884;2024-02-23T05:59:35;5.60;99.90
15906;DHT22;8051;50.820;4.884;2024-02-23T06:02:04;5.50;99.90
15906;DHT22;8051;50.820;4.884;2024-02-23T06:04:32;5.60;99.90
15906;DHT22;8051;50.820;4.884;2024-02-23T06:07:00;5.60;99.90
15906;DHT22;8051;50.820;4.884;2024-02-23T06:09:27;5.50;99.90
15906;DHT22;8051;50.820;4.884;2024-02-23T06:11:55;5.50;99.90
15906;DHT22;8051;50.820;4.884;2024-02-23T06:14:22;5.50;99.90
15906;DHT22;8051;50.820;4.884;2024-02-23T06:16:50;5.50;99.90
15906;DHT22;8051;50.820;4.884;2024-02-23T06:19:19;5.50;99.90
15906;DHT22;8051;50.820;4.884;2024-02-23T06:21:48;5.50;99.90
15906;DHT22;8051;50.820;4.884;2024-02-23T06:24:16;5.60;99.90
15906;DHT22;8051;50.820;4.884;2024-02-23T06:26:43;5.60;99.90
15906;DHT22;8051;50.820;4.884;2024-02-23T06:29:11;5.60;99.90
15906;DHT22;8051;50.820;4.884;2024-02-23T06:31:39;5.60;99.90
15906;DHT22;8051;50.820;4.884;2024-02-23T06:34:07;5.60;99.90
15906;DHT22;8051;50.820;4.884;2024-02-23T06:36:37;5.60;99.90
15906;DHT22;8051;50.820;4.884;2024-02-23T06:39:04;5.60;99.90
15906;DHT22;8051;50.820;4.884;2024-02-23T06:41:32;5.60;99.90
15906;DHT22;8051;50.820;4.884;2024-02-23T06:43:59;5.60;99.90
15906;DHT22;8051;50.820;4.884;2024-02-23T06:46:27;5.60;99.90
15906;DHT22;8051;50.820;4.884;2024-02-23T06:48:54;5.60;99.90
15906;DHT22;8051;50.820;4.884;2024-02-23T06:51:22;5.60;99.90
15906;DHT22;8051;50.820;4.884;2024-02-23T06:53:51;5.60;99.90
15906;DHT22;8051;50.820;4.884;2024-02-23T06:56:18;5.60;99.90
15906;DHT22;8051;50.820;4.884;2024-02-23T06:58:45;5.70;99.90
15906;DHT22;8051;50.820;4.884;2024-02-23T07:01:12;5.70;99.90
15906;DHT22;8051;50.820;4.884;2024-02-23T07:03:40;5.70;99.90
15906;DHT22;8051;50.820;4.884;2024-02-23T07:06:10;5.70;99.90
15906;DHT22;8051;50.820;4.884;2024-02-23T07:08:37;5.70;99.90
15906;DHT22;8051;50.820;4.884;2024-02-23T07:11:06;5.70;99.90
15906;DHT22;8051;50.820;4.884;2024-02-23T07:13:34;5.80;99.90
15906;DHT22;8051;50.820;4.884;2024-02-23T07:16:01;5.90;99.90
15906;DHT22;8051;50.820;4.884;2024-02-23T07:18:29;5.90;99.90
15906;DHT22;8051;50.820;4.884;2024-02-23T07:20:56;5.90;99.90
15906;DHT22;8051;50.820;4.884;2024-02-23T07:23:23;6.00;99.90
15906;DHT22;8051;50.820;4.884;2024-02-23T07:25:51;6.00;99.90
15906;DHT22;8051;50.820;4.884;2024-02-23T07:28:20;6.00;99.90
15906;DHT22;8051;50.820;4.884;2024-02-23T07:30:48;6.00;99.90
15906;DHT22;8051;50.820;4.884;2024-02-23T07:33:17;6.10;99.90
15906;DHT22;8051;50.820;4.884;2024-02-23T07:35:44;6.10;99.90
15906;DHT22;8051;50.820;4.884;2024-02-23T07:38:12;6.10;99.90
15906;DHT22;8051;50.820;4.884;2024-02-23T07:40:40;6.10;99.90
15906;DHT22;8051;50.820;4.884;2024-02-23T07:43:07;6.10;99.90
15906;DHT22;8051;50.820;4.884;2024-02-23T07:45:38;6.10;99.90
15906;DHT22;8051;50.820;4.884;2024-02-23T07:48:05;6.10;99.90
15906;DHT22;8051;50.820;4.884;2024-02-23T07:50:34;6.10;99.90
15906;DHT22;8051;50.820;4.884;2024-02-23T07:53:02;6.20;99.90
15906;DHT22;8051;50.820;4.884;2024-02-23T07:55:30;6.20;99.90
15906;DHT22;8051;50.820;4.884;2024-02-23T07:57:57;6.30;99.90
15906;DHT22;8051;50.820;4.884;2024-02-23T08:00:27;6.30;99.90
15906;DHT22;8051;50.820;4.884;2024-02-23T08:02:56;6.30;99.90
15906;DHT22;8051;50.820;4.884;2024-02-23T08:05:25;6.40;99.90
15906;DHT22;8051;50.820;4.884;2024-02-23T08:07:52;6.40;99.90
15906;DHT22;8051;50.820;4.884;2024-02-23T08:10:19;6.40;99.90
15906;DHT22;8051;50.820;4.884;2024-02-23T08:12:47;6.40;99.90
15906;DHT22;8051;50.820;4.884;2024-02-23T08:15:15;6.50;99.90
15906;DHT22;8051;50.820;4.884;2024-02-23T08:17:42;6.50;99.90
15906;DHT22;8051;50.820;4.884;2024-02-23T08:20:11;6.50;99.90
15906;DHT22;8051;50.820;4.884;2024-02-23T08:22:39;6.60;99.90
15906;DHT22;8051;50.820;4.884;2024-02-23T08:25:07;6.60;99.90
15906;DHT22;8051;50.820;4.884;2024-02-23T08:27:34;6.60;99.90
15906;DHT22;8051;50.820;4.884;2024-02-23T08:30:02;6.60;99.90
15906;DHT22;8051;50.820;4.884;2024-02-23T08:32:30;6.60;99.90
15906;DHT22;8051;50.820;4.884;2024-02-23T08:34:57;6.50;99.90
15906;DHT22;8051;50.820;4.884;2024-02-23T08:37:27;6.40;99.90
15906;DHT22;8051;50.820;4.884;2024-02-23T08:39:55;6.30;99.90
15906;DHT22;8051;50.820;4.884;2024-02-23T08:42:23;6.20;99.90
15906;DHT22;8051;50.820;4.884;2024-02-23T08:44:50;6.10;99.90
15906;DHT22;8051;50.820;4.884;2024-02-23T08:47:20;6.10;99.90
15906;DHT22;8051;50.820;4.884;2024-02-23T08:49:47;6.20;99.90
15906;DHT22;8051;50.820;4.884;2024-02-23T08:52:15;6.10;99.90
15906;DHT22;8051;50.820;4.884;2024-02-23T08:54:43;6.00;99.90
15906;DHT22;8051;50.820;4.884;2024-02-23T08:57:11;5.90;99.90
15906;DHT22;8051;50.820;4.884;2024-02-23T08:59:43;5.80;99.90
15906;DHT22;8051;50.820;4.884;2024-02-23T09:02:10;5.70;99.90
15906;DHT22;8051;50.820;4.884;2024-02-23T09:04:38;5.70;99.90
15906;DHT22;8051;50.820;4.884;2024-02-23T09:07:05;5.70;99.90
15906;DHT22;8051;50.820;4.884;2024-02-23T09:09:33;5.80;99.90
15906;DHT22;8051;50.820;4.884;2024-02-23T09:12:02;5.90;99.90
15906;DHT22;8051;50.820;4.884;2024-02-23T09:14:30;6.00;99.90
15906;DHT22;8051;50.820;4.884;2024-02-23T09:16:57;6.20;99.90
15906;DHT22;8051;50.820;4.884;2024-02-23T09:19:24;6.60;99.90
15906;DHT22;8051;50.820;4.884;2024-02-23T09:21:52;7.00;99.90
15906;DHT22;8051;50.820;4.884;2024-02-23T09:24:19;7.10;99.90
15906;DHT22;8051;50.820;4.884;2024-02-23T09:26:47;7.00;99.90
15906;DHT22;8051;50.820;4.884;2024-02-23T09:29:15;7.00;99.90
15906;DHT22;8051;50.820;4.884;2024-02-23T09:31:43;7.00;99.90
15906;DHT22;8051;50.820;4.884;2024-02-23T09:34:10;6.90;99.90
15906;DHT22;8051;50.820;4.884;2024-02-23T09:36:38;7.00;99.90
15906;DHT22;8051;50.820;4.884;2024-02-23T09:39:05;6.80;99.90
15906;DHT22;8051;50.820;4.884;2024-02-23T09:41:33;6.70;99.90
15906;DHT22;8051;50.820;4.884;2024-02-23T09:44:01;6.60;99.90
15906;DHT22;8051;50.820;4.884;2024-02-23T09:46:30;6.50;99.90
15906;DHT22;8051;50.820;4.884;2024-02-23T09:48:59;6.50;99.90
15906;DHT22;8051;50.820;4.884;2024-02-23T09:51:29;6.60;99.90
15906;DHT22;8051;50.820;4.884;2024-02-23T09:53:58;6.70;99.90
15906;DHT22;8051;50.820;4.884;2024-02-23T09:56:27;6.80;99.90
15906;DHT22;8051;50.820;4.884;2024-02-23T09:58:56;6.80;99.90
15906;DHT22;8051;50.820;4.884;2024-02-23T10:01:28;7.00;99.90
15906;DHT22;8051;50.820;4.884;2024-02-23T10:04:00;7.00;99.90
15906;DHT22;8051;50.820;4.884;2024-02-23T10:06:29;7.00;99.90
15906;DHT22;8051;50.820;4.884;2024-02-23T10:08:56;6.90;99.90
15906;DHT22;8051;50.820;4.884;2024-02-23T10:11:24;7.00;99.90
15906;DHT22;8051;50.820;4.884;2024-02-23T10:13:52;7.20;99.90
15906;DHT22;8051;50.820;4.884;2024-02-23T10:16:20;7.40;99.90
15906;DHT22;8051;50.820;4.884;2024-02-23T10:18:48;7.70;99.90
15906;DHT22;8051;50.820;4.884;2024-02-23T10:21:17;7.80;99.90
15906;DHT22;8051;50.820;4.884;2024-02-23T10:23:45;7.70;99.90
15906;DHT22;8051;50.820;4.884;2024-02-23T10:26:12;7.50;99.90
15906;DHT22;8051;50.820;4.884;2024-02-23T10:28:45;7.20;99.90
15906;DHT22;8051;50.820;4.884;2024-02-23T10:31:13;7.20;99.90
15906;DHT22;8051;50.820;4.884;2024-02-23T10:33:41;7.10;99.90
15906;DHT22;8051;50.820;4.884;2024-02-23T10:36:12;7.20;99.90
15906;DHT22;8051;50.820;4.884;2024-02-23T10:38:45;7.30;99.90
15906;DHT22;8051;50.820;4.884;2024-02-23T10:41:13;7.40;99.90
15906;DHT22;8051;50.820;4.884;2024-02-23T10:43:44;7.30;99.90
15906;DHT22;8051;50.820;4.884;2024-02-23T10:46:12;7.20;99.90
15906;DHT22;8051;50.820;4.884;2024-02-23T10:48:41;7.50;99.90
15906;DHT22;8051;50.820;4.884;2024-02-23T10:51:12;7.60;99.90
15906;DHT22;8051;50.820;4.884;2024-02-23T10:53:40;7.60;99.90
15906;DHT22;8051;50.820;4.884;2024-02-23T10:56:10;7.70;99.90
15906;DHT22;8051;50.820;4.884;2024-02-23T10:58:38;7.50;99.90
15906;DHT22;8051;50.820;4.884;2024-02-23T11:01:07;7.50;99.90
15906;DHT22;8051;50.820;4.884;2024-02-23T11:03:37;7.60;99.90
15906;DHT22;8051;50.820;4.884;2024-02-23T11:06:06;7.90;99.90
15906;DHT22;8051;50.820;4.884;2024-02-23T11:08:34;8.10;99.90
15906;DHT22;8051;50.820;4.884;2024-02-23T11:11:09;8.30;99.90
15906;DHT22;8051;50.820;4.884;2024-02-23T11:13:37;8.50;99.90
15906;DHT22;8051;50.820;4.884;2024-02-23T11:16:06;8.70;99.90
15906;DHT22;8051;50.820;4.884;2024-02-23T11:18:35;8.80;99.90
15906;DHT22;8051;50.820;4.884;2024-02-23T11:21:04;9.00;99.90
15906;DHT22;8051;50.820;4.884;2024-02-23T11:23:40;9.20;99.90
15906;DHT22;8051;50.820;4.884;2024-02-23T11:26:11;9.10;99.90
15906;DHT22;8051;50.820;4.884;2024-02-23T11:28:43;9.40;99.90
15906;DHT22;8051;50.820;4.884;2024-02-23T11:31:14;9.50;99.90
15906;DHT22;8051;50.820;4.884;2024-02-23T11:33:48;9.70;99.90
15906;DHT22;8051;50.820;4.884;2024-02-23T11:36:22;9.80;99.90
15906;DHT22;8051;50.820;4.884;2024-02-23T11:38:53;9.80;99.90
15906;DHT22;8051;50.820;4.884;2024-02-23T11:41:23;9.50;99.90
15906;DHT22;8051;50.820;4.884;2024-02-23T11:43:51;9.20;99.90
15906;DHT22;8051;50.820;4.884;2024-02-23T11:46:19;9.00;99.90
15906;DHT22;8051;50.820;4.884;2024-02-23T11:48:46;9.10;99.90
15906;DHT22;8051;50.820;4.884;2024-02-23T11:51:19;9.30;99.90
15906;DHT22;8051;50.820;4.884;2024-02-23T11:53:47;9.50;99.90
15906;DHT22;8051;50.820;4.884;2024-02-23T11:56:15;9.70;99.90
15906;DHT22;8051;50.820;4.884;2024-02-23T11:58:46;9.90;99.90
15906;DHT22;8051;50.820;4.884;2024-02-23T12:01:14;10.10;99.90
15906;DHT22;8051;50.820;4.884;2024-02-23T12:03:41;10.20;99.90
15906;DHT22;8051;50.820;4.884;2024-02-23T12:06:10;10.20;99.90
15906;DHT22;8051;50.820;4.884;2024-02-23T12:08:38;10.10;99.90
15906;DHT22;8051;50.820;4.884;2024-02-23T12:11:07;10.20;99.90
15906;DHT22;8051;50.820;4.884;2024-02-23T12:13:36;9.90;99.90
15906;DHT22;8051;50.820;4.884;2024-02-23T12:16:07;9.70;99.90
15906;DHT22;8051;50.820;4.884;2024-02-23T12:18:35;9.80;99.90
15906;DHT22;8051;50.820;4.884;2024-02-23T12:21:05;9.70;99.90
15906;DHT22;8051;50.820;4.884;2024-02-23T12:23:43;9.60;99.90
15906;DHT22;8051;50.820;4.884;2024-02-23T12:26:12;9.40;99.90
15906;DHT22;8051;50.820;4.884;2024-02-23T12:28:40;9.40;99.90
15906;DHT22;8051;50.820;4.884;2024-02-23T12:31:10;9.40;99.90
15906;DHT22;8051;50.820;4.884;2024-02-23T12:33:38;9.50;99.90
15906;DHT22;8051;50.820;4.884;2024-02-23T12:36:08;9.70;99.90
15906;DHT22;8051;50.820;4.884;2024-02-23T12:38:36;9.80;99.90
15906;DHT22;8051;50.820;4.884;2024-02-23T12:41:04;9.80;99.90
15906;DHT22;8051;50.820;4.884;2024-02-23T12:43:32;9.70;99.90
15906;DHT22;8051;50.820;4.884;2024-02-23T12:45:59;9.70;99.90
15906;DHT22;8051;50.820;4.884;2024-02-23T12:48:30;9.40;99.90
15906;DHT22;8051;50.820;4.884;2024-02-23T12:50:58;9.40;99.90
15906;DHT22;8051;50.820;4.884;2024-02-23T12:53:33;9.40;99.90
15906;DHT22;8051;50.820;4.884;2024-02-23T12:56:02;9.40;99.90
15906;DHT22;8051;50.820;4.884;2024-02-23T12:58:30;9.50;99.90
15906;DHT22;8051;50.820;4.884;2024-02-23T13:00:57;9.40;99.90
15906;DHT22;8051;50.820;4.884;2024-02-23T13:03:25;9.30;99.90
15906;DHT22;8051;50.820;4.884;2024-02-23T13:05:55;9.10;99.90
15906;DHT22;8051;50.820;4.884;2024-02-23T13:08:23;9.10;99.90
15906;DHT22;8051;50.820;4.884;2024-02-23T13:10:52;9.00;99.90
15906;DHT22;8051;50.820;4.884;2024-02-23T13:13:20;9.10;99.90
15906;DHT22;8051;50.820;4.884;2024-02-23T13:15:48;9.20;99.90
15906;DHT22;8051;50.820;4.884;2024-02-23T13:18:16;9.50;99.90
15906;DHT22;8051;50.820;4.884;2024-02-23T13:20:45;9.70;99.90
15906;DHT22;8051;50.820;4.884;2024-02-23T13:23:14;9.90;99.90
15906;DHT22;8051;50.820;4.884;2024-02-23T13:25:42;9.90;99.90
15906;DHT22;8051;50.820;4.884;2024-02-23T13:28:09;9.80;99.90
15906;DHT22;8051;50.820;4.884;2024-02-23T13:30:37;9.60;99.90
15906;DHT22;8051;50.820;4.884;2024-02-23T13:33:04;9.70;99.90
15906;DHT22;8051;50.820;4.884;2024-02-23T13:35:34;9.50;99.90
15906;DHT22;8051;50.820;4.884;2024-02-23T13:38:01;9.40;99.90
15906;DHT22;8051;50.820;4.884;2024-02-23T13:40:31;9.40;99.90
15906;DHT22;8051;50.820;4.884;2024-02-23T13:42:59;9.50;99.90
15906;DHT22;8051;50.820;4.884;2024-02-23T13:45:26;9.50;99.90
15906;DHT22;8051;50.820;4.884;2024-02-23T13:47:58;9.50;99.90
15906;DHT22;8051;50.820;4.884;2024-02-23T13:50:25;9.40;99.90
15906;DHT22;8051;50.820;4.884;2024-02-23T13:52:53;9.30;99.90
15906;DHT22;8051;50.820;4.884;2024-02-23T13:55:21;9.30;99.90
15906;DHT22;8051;50.820;4.884;2024-02-23T13:57:50;9.30;99.90
15906;DHT22;8051;50.820;4.884;2024-02-23T14:00:18;9.30;99.90
15906;DHT22;8051;50.820;4.884;2024-02-23T14:02:46;9.40;99.90
15906;DHT22;8051;50.820;4.884;2024-02-23T14:05:13;9.40;99.90
15906;DHT22;8051;50.820;4.884;2024-02-23T14:07:41;9.50;99.90
15906;DHT22;8051;50.820;4.884;2024-02-23T14:10:09;9.50;99.90
15906;DHT22;8051;50.820;4.884;2024-02-23T14:12:36;9.60;99.90
15906;DHT22;8051;50.820;4.884;2024-02-23T14:15:06;9.70;99.90
15906;DHT22;8051;50.820;4.884;2024-02-23T14:17:33;9.70;99.90
15906;DHT22;8051;50.820;4.884;2024-02-23T14:20:01;9.70;99.90
15906;DHT22;8051;50.820;4.884;2024-02-23T14:22:29;9.80;99.90
15906;DHT22;8051;50.820;4.884;2024-02-23T14:24:57;9.80;99.90
15906;DHT22;8051;50.820;4.884;2024-02-23T14:27:25;9.90;99.90
15906;DHT22;8051;50.820;4.884;2024-02-23T14:29:54;9.90;99.90
15906;DHT22;8051;50.820;4.884;2024-02-23T14:32:23;9.90;99.90
15906;DHT22;8051;50.820;4.884;2024-02-23T14:34:51;9.90;99.90
15906;DHT22;8051;50.820;4.884;2024-02-23T14:37:18;10.00;99.90
15906;DHT22;8051;50.820;4.884;2024-02-23T14:39:46;9.80;99.90
15906;DHT22;8051;50.820;4.884;2024-02-23T14:42:15;9.60;99.90
15906;DHT22;8051;50.820;4.884;2024-02-23T14:44:42;9.50;99.90
15906;DHT22;8051;50.820;4.884;2024-02-23T14:47:10;9.40;99.90
15906;DHT22;8051;50.820;4.884;2024-02-23T14:49:39;9.20;99.90
15906;DHT22;8051;50.820;4.884;2024-02-23T14:52:07;9.20;99.90
15906;DHT22;8051;50.820;4.884;2024-02-23T14:54:34;9.10;99.90
15906;DHT22;8051;50.820;4.884;2024-02-23T14:57:03;9.10;99.90
15906;DHT22;8051;50.820;4.884;2024-02-23T14:59:30;9.10;99.90
15906;DHT22;8051;50.820;4.884;2024-02-23T15:02:01;9.10;99.90
15906;DHT22;8051;50.820;4.884;2024-02-23T15:04:29;9.10;99.90
15906;DHT22;8051;50.820;4.884;2024-02-23T15:06:58;9.10;99.90
15906;DHT22;8051;50.820;4.884;2024-02-23T15:09:26;9.10;99.90
15906;DHT22;8051;50.820;4.884;2024-02-23T15:11:53;9.10;99.90
15906;DHT22;8051;50.820;4.884;2024-02-23T15:14:21;8.90;99.90
15906;DHT22;8051;50.820;4.884;2024-02-23T15:16:48;8.80;99.90
15906;DHT22;8051;50.820;4.884;2024-02-23T15:19:16;8.90;99.90
15906;DHT22;8051;50.820;4.884;2024-02-23T15:21:43;9.10;99.90
15906;DHT22;8051;50.820;4.884;2024-02-23T15:24:12;9.20;99.90
15906;DHT22;8051;50.820;4.884;2024-02-23T15:26:39;9.30;99.90
15906;DHT22;8051;50.820;4.884;2024-02-23T15:29:07;9.30;99.90
15906;DHT22;8051;50.820;4.884;2024-02-23T15:31:35;9.50;99.90
15906;DHT22;8051;50.820;4.884;2024-02-23T15:34:03;9.50;99.90
15906;DHT22;8051;50.820;4.884;2024-02-23T15:36:30;9.50;99.90
15906;DHT22;8051;50.820;4.884;2024-02-23T15:38:58;9.50;99.90
15906;DHT22;8051;50.820;4.884;2024-02-23T15:41:30;9.50;99.90
15906;DHT22;8051;50.820;4.884;2024-02-23T15:44:00;9.50;99.90
15906;DHT22;8051;50.820;4.884;2024-02-23T15:46:27;9.40;99.90
15906;DHT22;8051;50.820;4.884;2024-02-23T15:48:56;9.40;99.90
15906;DHT22;8051;50.820;4.884;2024-02-23T15:51:23;9.30;99.90
15906;DHT22;8051;50.820;4.884;2024-02-23T15:53:51;9.20;99.90
15906;DHT22;8051;50.820;4.884;2024-02-23T15:56:18;9.20;99.90
15906;DHT22;8051;50.820;4.884;2024-02-23T15:58:47;9.10;99.90
15906;DHT22;8051;50.820;4.884;2024-02-23T16:01:15;9.10;99.90
15906;DHT22;8051;50.820;4.884;2024-02-23T16:03:42;9.20;99.90
15906;DHT22;8051;50.820;4.884;2024-02-23T16:06:10;8.90;99.90
15906;DHT22;8051;50.820;4.884;2024-02-23T16:08:41;8.40;99.90
15906;DHT22;8051;50.820;4.884;2024-02-23T16:11:10;8.00;99.90
15906;DHT22;8051;50.820;4.884;2024-02-23T16:13:38;7.80;99.90
15906;DHT22;8051;50.820;4.884;2024-02-23T16:16:07;7.60;99.90
15906;DHT22;8051;50.820;4.884;2024-02-23T16:18:35;7.50;99.90
15906;DHT22;8051;50.820;4.884;2024-02-23T16:21:03;7.40;99.90